Lingleville, TX (76461)

3:24 AM CDT on July 27, 2016 (GMT -0500)
Cripplegate Ranch | | Change Station

Elev 1414 ft 32.30 °N, 98.28 °W | Updated 2 seconds ago

Clear
Clear
77.5 °F
Feels Like 79 °F
N
0.0
Wind Variable Wind from SSE
Gusts 0.0 mph

Today
High -- | Low -- °F
--% Chance of Precip.
Yesterday
High -- | Low -- °F
Precip. -- in
Pressure 29.97 in
Visibility 10.0 miles
Clouds Clear
Heat Index 79 °F
Dew Point 72 °F
Humidity 84%
Rainfall 0.00 in
Snow Depth Not available.
6:45 AM 8:34 PM
Last Quarter, 45% visible
METAR KSEP 270815Z AUTO 00000KT 10SM CLR 25/20 A2997 RMK AO2 T02480204
Pressure 29.97 in
Visibility 10.0 miles
Clouds Clear
Heat Index 79 °F
Dew Point 72 °F
Humidity 84%
Rainfall 0.00 in
Snow Depth Not available.
6:45 AM 8:34 PM
Last Quarter, 45% visible
METAR KSEP 270815Z AUTO 00000KT 10SM CLR 25/20 A2997 RMK AO2 T02480204

10-Day Weather Forecast

Almanac

Astronomy

Jul. 27, 2016 Rise Set
Actual Time
Civil Twilight
Nautical Twilight
Astronomical Twilight
Moon
Length of Visible Light
Length of Day
Tomorrow will be .
, % of the Moon is Illuminated

Today's Extremes

State Highs State Lows

Community

WunderPhotos

Upload Photos

1,927,818 photos uploaded!

WunderBlog® & News

Nearby

Air Quality

  Air Quality AQ Index Pollutant
Not available.

Snow Depth

Station Depth Elevation

Earthquake Activity

City Distance Mag. Time & Date
Minimum magnitude displayed is 2.5.

Coastal Water Temperatures

Place Temperature

Stations

Nearby Weather Stations

Station Location Temp. Windchill Dew Point Humidity Wind Precip. Elev Updated Type
                   

Watches & Warnings

There are currently no watches in effect.